sensor_id;sensor_type;location;lat;lon;timestamp;P1;durP1;ratioP1;P2;durP2;ratioP2
71290;SDS011;59073;51.994;4.448;2024-03-17T00:01:36;5.01;;;4.97;;
71290;SDS011;59073;51.994;4.448;2024-03-17T00:04:02;4.95;;;4.87;;
71290;SDS011;59073;51.994;4.448;2024-03-17T00:06:28;5.15;;;5.09;;
71290;SDS011;59073;51.994;4.448;2024-03-17T00:08:54;5.22;;;5.19;;
71290;SDS011;59073;51.994;4.448;2024-03-17T00:11:20;4.75;;;4.75;;
71290;SDS011;59073;51.994;4.448;2024-03-17T00:13:46;4.83;;;4.82;;
71290;SDS011;59073;51.994;4.448;2024-03-17T00:16:12;4.99;;;4.96;;
71290;SDS011;59073;51.994;4.448;2024-03-17T00:18:38;4.85;;;4.82;;
71290;SDS011;59073;51.994;4.448;2024-03-17T00:21:06;5.15;;;5.11;;
71290;SDS011;59073;51.994;4.448;2024-03-17T00:23:31;5.20;;;5.19;;
71290;SDS011;59073;51.994;4.448;2024-03-17T00:25:57;4.76;;;4.75;;
71290;SDS011;59073;51.994;4.448;2024-03-17T00:28:22;4.76;;;4.76;;
71290;SDS011;59073;51.994;4.448;2024-03-17T00:30:50;4.69;;;4.68;;
71290;SDS011;59073;51.994;4.448;2024-03-17T00:33:15;4.39;;;4.39;;
71290;SDS011;59073;51.994;4.448;2024-03-17T00:35:41;4.51;;;4.51;;
71290;SDS011;59073;51.994;4.448;2024-03-17T00:38:06;4.73;;;4.73;;
71290;SDS011;59073;51.994;4.448;2024-03-17T00:40:36;4.60;;;4.60;;
71290;SDS011;59073;51.994;4.448;2024-03-17T00:43:02;4.30;;;4.29;;
71290;SDS011;59073;51.994;4.448;2024-03-17T00:45:28;4.29;;;4.29;;
71290;SDS011;59073;51.994;4.448;2024-03-17T00:47:53;4.15;;;4.15;;
71290;SDS011;59073;51.994;4.448;2024-03-17T00:50:19;4.39;;;4.38;;
71290;SDS011;59073;51.994;4.448;2024-03-17T00:52:44;4.53;;;4.53;;
71290;SDS011;59073;51.994;4.448;2024-03-17T00:55:10;4.13;;;4.12;;
71290;SDS011;59073;51.994;4.448;2024-03-17T00:57:35;4.03;;;4.01;;
71290;SDS011;59073;51.994;4.448;2024-03-17T01:00:02;4.14;;;4.13;;
71290;SDS011;59073;51.994;4.448;2024-03-17T01:02:29;4.22;;;4.22;;
71290;SDS011;59073;51.994;4.448;2024-03-17T01:04:54;4.24;;;4.24;;
71290;SDS011;59073;51.994;4.448;2024-03-17T01:07:20;4.08;;;4.07;;
71290;SDS011;59073;51.994;4.448;2024-03-17T01:09:46;4.27;;;4.27;;
71290;SDS011;59073;51.994;4.448;2024-03-17T01:12:13;4.28;;;4.25;;
71290;SDS011;59073;51.994;4.448;2024-03-17T01:14:38;4.32;;;4.30;;
71290;SDS011;59073;51.994;4.448;2024-03-17T01:17:04;4.46;;;4.43;;
71290;SDS011;59073;51.994;4.448;2024-03-17T01:19:32;4.18;;;4.18;;
71290;SDS011;59073;51.994;4.448;2024-03-17T01:21:59;4.65;;;4.65;;
71290;SDS011;59073;51.994;4.448;2024-03-17T01:24:26;4.35;;;4.35;;
71290;SDS011;59073;51.994;4.448;2024-03-17T01:26:57;4.49;;;4.49;;
71290;SDS011;59073;51.994;4.448;2024-03-17T01:29:26;4.72;;;4.70;;
71290;SDS011;59073;51.994;4.448;2024-03-17T01:31:52;5.06;;;5.00;;
71290;SDS011;59073;51.994;4.448;2024-03-17T01:34:18;4.60;;;4.60;;
71290;SDS011;59073;51.994;4.448;2024-03-17T01:36:44;5.06;;;5.06;;
71290;SDS011;59073;51.994;4.448;2024-03-17T01:39:10;4.85;;;4.83;;
71290;SDS011;59073;51.994;4.448;2024-03-17T01:41:36;4.83;;;4.79;;
71290;SDS011;59073;51.994;4.448;2024-03-17T01:44:02;4.62;;;4.62;;
71290;SDS011;59073;51.994;4.448;2024-03-17T01:46:27;4.55;;;4.54;;
71290;SDS011;59073;51.994;4.448;2024-03-17T01:48:53;5.16;;;5.11;;
71290;SDS011;59073;51.994;4.448;2024-03-17T01:51:19;5.09;;;5.05;;
71290;SDS011;59073;51.994;4.448;2024-03-17T01:53:47;5.11;;;5.11;;
71290;SDS011;59073;51.994;4.448;2024-03-17T01:56:13;5.05;;;5.05;;
71290;SDS011;59073;51.994;4.448;2024-03-17T01:58:43;5.11;;;5.11;;
71290;SDS011;59073;51.994;4.448;2024-03-17T02:01:10;5.34;;;5.34;;
71290;SDS011;59073;51.994;4.448;2024-03-17T02:03:39;5.49;;;5.49;;
71290;SDS011;59073;51.994;4.448;2024-03-17T02:06:05;5.36;;;5.36;;
71290;SDS011;59073;51.994;4.448;2024-03-17T02:08:45;5.88;;;5.88;;
71290;SDS011;59073;51.994;4.448;2024-03-17T02:11:14;6.18;;;6.18;;
71290;SDS011;59073;51.994;4.448;2024-03-17T02:13:50;5.74;;;5.74;;
71290;SDS011;59073;51.994;4.448;2024-03-17T02:16:16;5.76;;;5.76;;
71290;SDS011;59073;51.994;4.448;2024-03-17T02:18:43;5.90;;;5.90;;
71290;SDS011;59073;51.994;4.448;2024-03-17T02:21:09;5.24;;;5.24;;
71290;SDS011;59073;51.994;4.448;2024-03-17T02:23:35;5.42;;;5.42;;
71290;SDS011;59073;51.994;4.448;2024-03-17T02:26:00;5.52;;;5.52;;
71290;SDS011;59073;51.994;4.448;2024-03-17T02:28:26;5.62;;;5.62;;
71290;SDS011;59073;51.994;4.448;2024-03-17T02:30:51;5.43;;;5.43;;
71290;SDS011;59073;51.994;4.448;2024-03-17T02:33:17;5.59;;;5.56;;
71290;SDS011;59073;51.994;4.448;2024-03-17T02:35:43;5.77;;;5.74;;
71290;SDS011;59073;51.994;4.448;2024-03-17T02:38:09;5.63;;;5.62;;
71290;SDS011;59073;51.994;4.448;2024-03-17T02:40:40;5.64;;;5.64;;
71290;SDS011;59073;51.994;4.448;2024-03-17T02:43:05;5.66;;;5.65;;
71290;SDS011;59073;51.994;4.448;2024-03-17T02:45:31;5.97;;;5.97;;
71290;SDS011;59073;51.994;4.448;2024-03-17T02:47:57;5.22;;;5.22;;
71290;SDS011;59073;51.994;4.448;2024-03-17T02:50:22;5.84;;;5.84;;
71290;SDS011;59073;51.994;4.448;2024-03-17T02:52:48;5.96;;;5.96;;
71290;SDS011;59073;51.994;4.448;2024-03-17T02:55:14;5.97;;;5.96;;
71290;SDS011;59073;51.994;4.448;2024-03-17T02:57:39;6.22;;;6.20;;
71290;SDS011;59073;51.994;4.448;2024-03-17T03:00:06;5.57;;;5.57;;
71290;SDS011;59073;51.994;4.448;2024-03-17T03:02:34;5.71;;;5.71;;
71290;SDS011;59073;51.994;4.448;2024-03-17T03:04:59;5.83;;;5.83;;
71290;SDS011;59073;51.994;4.448;2024-03-17T03:07:25;6.36;;;6.36;;
71290;SDS011;59073;51.994;4.448;2024-03-17T03:09:50;5.90;;;5.90;;
71290;SDS011;59073;51.994;4.448;2024-03-17T03:12:16;5.96;;;5.96;;
71290;SDS011;59073;51.994;4.448;2024-03-17T03:14:41;5.82;;;5.82;;
71290;SDS011;59073;51.994;4.448;2024-03-17T03:17:07;6.23;;;6.23;;
71290;SDS011;59073;51.994;4.448;2024-03-17T03:19:33;6.16;;;6.16;;
71290;SDS011;59073;51.994;4.448;2024-03-17T03:21:59;6.04;;;6.04;;
71290;SDS011;59073;51.994;4.448;2024-03-17T03:24:24;6.20;;;6.20;;
71290;SDS011;59073;51.994;4.448;2024-03-17T03:26:50;5.82;;;5.82;;
71290;SDS011;59073;51.994;4.448;2024-03-17T03:29:15;5.76;;;5.76;;
71290;SDS011;59073;51.994;4.448;2024-03-17T03:31:41;5.81;;;5.81;;
71290;SDS011;59073;51.994;4.448;2024-03-17T03:34:07;5.78;;;5.76;;
71290;SDS011;59073;51.994;4.448;2024-03-17T03:36:34;5.90;;;5.86;;
71290;SDS011;59073;51.994;4.448;2024-03-17T03:39:01;5.39;;;5.38;;
71290;SDS011;59073;51.994;4.448;2024-03-17T03:41:29;5.66;;;5.65;;
71290;SDS011;59073;51.994;4.448;2024-03-17T03:43:55;5.55;;;5.55;;
71290;SDS011;59073;51.994;4.448;2024-03-17T03:46:20;5.81;;;5.80;;
71290;SDS011;59073;51.994;4.448;2024-03-17T03:48:46;5.66;;;5.66;;
71290;SDS011;59073;51.994;4.448;2024-03-17T03:51:11;5.69;;;5.69;;
71290;SDS011;59073;51.994;4.448;2024-03-17T03:53:37;5.45;;;5.45;;
71290;SDS011;59073;51.994;4.448;2024-03-17T03:56:03;5.41;;;5.38;;
71290;SDS011;59073;51.994;4.448;2024-03-17T03:58:33;5.87;;;5.87;;
71290;SDS011;59073;51.994;4.448;2024-03-17T04:01:00;5.90;;;5.90;;
71290;SDS011;59073;51.994;4.448;2024-03-17T04:03:30;5.90;;;5.90;;
71290;SDS011;59073;51.994;4.448;2024-03-17T04:06:05;5.92;;;5.92;;
71290;SDS011;59073;51.994;4.448;2024-03-17T04:08:33;5.71;;;5.70;;
71290;SDS011;59073;51.994;4.448;2024-03-17T04:10:59;6.10;;;6.10;;
71290;SDS011;59073;51.994;4.448;2024-03-17T04:13:26;5.72;;;5.72;;
71290;SDS011;59073;51.994;4.448;2024-03-17T04:15:54;6.01;;;6.00;;
71290;SDS011;59073;51.994;4.448;2024-03-17T04:18:22;6.34;;;6.34;;
71290;SDS011;59073;51.994;4.448;2024-03-17T04:20:50;6.16;;;6.16;;
71290;SDS011;59073;51.994;4.448;2024-03-17T04:23:19;6.10;;;6.10;;
71290;SDS011;59073;51.994;4.448;2024-03-17T04:25:46;6.59;;;6.57;;
71290;SDS011;59073;51.994;4.448;2024-03-17T04:28:13;6.13;;;6.12;;
71290;SDS011;59073;51.994;4.448;2024-03-17T04:30:39;6.86;;;6.86;;
71290;SDS011;59073;51.994;4.448;2024-03-17T04:33:05;6.64;;;6.64;;
71290;SDS011;59073;51.994;4.448;2024-03-17T04:35:35;6.59;;;6.59;;
71290;SDS011;59073;51.994;4.448;2024-03-17T04:38:01;6.77;;;6.76;;
71290;SDS011;59073;51.994;4.448;2024-03-17T04:40:27;6.89;;;6.89;;
71290;SDS011;59073;51.994;4.448;2024-03-17T04:42:52;7.26;;;7.18;;
71290;SDS011;59073;51.994;4.448;2024-03-17T04:45:18;7.25;;;7.25;;
71290;SDS011;59073;51.994;4.448;2024-03-17T04:47:43;7.45;;;7.45;;
71290;SDS011;59073;51.994;4.448;2024-03-17T04:50:09;6.92;;;6.90;;
71290;SDS011;59073;51.994;4.448;2024-03-17T04:52:34;7.42;;;7.42;;
71290;SDS011;59073;51.994;4.448;2024-03-17T04:55:00;7.18;;;7.18;;
71290;SDS011;59073;51.994;4.448;2024-03-17T04:57:25;7.70;;;7.68;;
71290;SDS011;59073;51.994;4.448;2024-03-17T04:59:51;7.45;;;7.39;;
71290;SDS011;59073;51.994;4.448;2024-03-17T05:02:16;7.80;;;7.72;;
71290;SDS011;59073;51.994;4.448;2024-03-17T05:04:42;7.55;;;7.49;;
71290;SDS011;59073;51.994;4.448;2024-03-17T05:07:08;7.48;;;7.48;;
71290;SDS011;59073;51.994;4.448;2024-03-17T05:09:34;7.81;;;7.81;;
71290;SDS011;59073;51.994;4.448;2024-03-17T05:12:00;7.60;;;7.60;;
71290;SDS011;59073;51.994;4.448;2024-03-17T05:14:25;7.47;;;7.47;;
71290;SDS011;59073;51.994;4.448;2024-03-17T05:16:51;8.02;;;8.02;;
71290;SDS011;59073;51.994;4.448;2024-03-17T05:19:17;7.70;;;7.69;;
71290;SDS011;59073;51.994;4.448;2024-03-17T05:21:45;7.98;;;7.92;;
71290;SDS011;59073;51.994;4.448;2024-03-17T05:24:11;7.76;;;7.73;;
71290;SDS011;59073;51.994;4.448;2024-03-17T05:26:37;8.06;;;8.06;;
71290;SDS011;59073;51.994;4.448;2024-03-17T05:29:03;7.67;;;7.67;;
71290;SDS011;59073;51.994;4.448;2024-03-17T05:31:29;7.33;;;7.30;;
71290;SDS011;59073;51.994;4.448;2024-03-17T05:33:56;7.50;;;7.49;;
71290;SDS011;59073;51.994;4.448;2024-03-17T05:36:22;8.16;;;8.16;;
71290;SDS011;59073;51.994;4.448;2024-03-17T05:38:47;8.07;;;8.07;;
71290;SDS011;59073;51.994;4.448;2024-03-17T05:41:13;7.41;;;7.41;;
71290;SDS011;59073;51.994;4.448;2024-03-17T05:43:39;7.73;;;7.72;;
71290;SDS011;59073;51.994;4.448;2024-03-17T05:46:05;7.82;;;7.75;;
71290;SDS011;59073;51.994;4.448;2024-03-17T05:48:40;7.56;;;7.55;;
71290;SDS011;59073;51.994;4.448;2024-03-17T05:51:07;7.50;;;7.50;;
71290;SDS011;59073;51.994;4.448;2024-03-17T05:53:34;7.71;;;7.68;;
71290;SDS011;59073;51.994;4.448;2024-03-17T05:56:01;8.50;;;8.47;;
71290;SDS011;59073;51.994;4.448;2024-03-17T05:58:28;7.69;;;7.69;;
71290;SDS011;59073;51.994;4.448;2024-03-17T06:00:53;7.44;;;7.44;;
71290;SDS011;59073;51.994;4.448;2024-03-17T06:03:19;7.84;;;7.84;;
71290;SDS011;59073;51.994;4.448;2024-03-17T06:05:46;7.83;;;7.81;;
71290;SDS011;59073;51.994;4.448;2024-03-17T06:08:12;7.81;;;7.77;;
71290;SDS011;59073;51.994;4.448;2024-03-17T06:10:41;7.66;;;7.65;;
71290;SDS011;59073;51.994;4.448;2024-03-17T06:13:09;7.82;;;7.82;;
71290;SDS011;59073;51.994;4.448;2024-03-17T06:15:38;7.96;;;7.96;;
71290;SDS011;59073;51.994;4.448;2024-03-17T06:18:05;7.77;;;7.77;;
71290;SDS011;59073;51.994;4.448;2024-03-17T06:20:34;7.46;;;7.46;;
71290;SDS011;59073;51.994;4.448;2024-03-17T06:23:00;7.62;;;7.62;;
71290;SDS011;59073;51.994;4.448;2024-03-17T06:25:26;7.77;;;7.75;;
71290;SDS011;59073;51.994;4.448;2024-03-17T06:27:53;7.80;;;7.80;;
71290;SDS011;59073;51.994;4.448;2024-03-17T06:30:18;7.46;;;7.46;;
71290;SDS011;59073;51.994;4.448;2024-03-17T06:32:45;7.71;;;7.71;;
71290;SDS011;59073;51.994;4.448;2024-03-17T06:35:11;7.88;;;7.86;;
71290;SDS011;59073;51.994;4.448;2024-03-17T06:37:40;7.57;;;7.52;;
71290;SDS011;59073;51.994;4.448;2024-03-17T06:40:15;7.60;;;7.51;;
71290;SDS011;59073;51.994;4.448;2024-03-17T06:42:41;7.24;;;7.17;;
71290;SDS011;59073;51.994;4.448;2024-03-17T06:45:07;7.33;;;7.33;;
71290;SDS011;59073;51.994;4.448;2024-03-17T06:47:36;7.30;;;7.30;;
71290;SDS011;59073;51.994;4.448;2024-03-17T06:50:02;7.63;;;7.63;;
71290;SDS011;59073;51.994;4.448;2024-03-17T06:52:35;7.17;;;7.16;;
71290;SDS011;59073;51.994;4.448;2024-03-17T06:55:01;7.41;;;7.41;;
71290;SDS011;59073;51.994;4.448;2024-03-17T06:57:27;7.21;;;7.21;;
71290;SDS011;59073;51.994;4.448;2024-03-17T06:59:52;7.45;;;7.45;;
71290;SDS011;59073;51.994;4.448;2024-03-17T07:02:18;7.46;;;7.46;;
71290;SDS011;59073;51.994;4.448;2024-03-17T07:04:45;7.48;;;7.48;;
71290;SDS011;59073;51.994;4.448;2024-03-17T07:07:12;6.71;;;6.71;;
71290;SDS011;59073;51.994;4.448;2024-03-17T07:09:39;7.13;;;7.13;;
71290;SDS011;59073;51.994;4.448;2024-03-17T07:12:08;7.56;;;7.56;;
71290;SDS011;59073;51.994;4.448;2024-03-17T07:14:35;7.21;;;7.21;;
71290;SDS011;59073;51.994;4.448;2024-03-17T07:17:01;7.84;;;7.83;;
71290;SDS011;59073;51.994;4.448;2024-03-17T07:19:27;7.53;;;7.48;;
71290;SDS011;59073;51.994;4.448;2024-03-17T07:21:53;7.41;;;7.40;;
71290;SDS011;59073;51.994;4.448;2024-03-17T07:24:20;7.28;;;7.26;;
71290;SDS011;59073;51.994;4.448;2024-03-17T07:26:47;7.41;;;7.34;;
71290;SDS011;59073;51.994;4.448;2024-03-17T07:29:13;7.13;;;7.09;;
71290;SDS011;59073;51.994;4.448;2024-03-17T07:31:39;6.98;;;6.98;;
71290;SDS011;59073;51.994;4.448;2024-03-17T07:34:04;6.96;;;6.96;;
71290;SDS011;59073;51.994;4.448;2024-03-17T07:36:30;6.63;;;6.63;;
71290;SDS011;59073;51.994;4.448;2024-03-17T07:38:56;7.16;;;7.13;;
71290;SDS011;59073;51.994;4.448;2024-03-17T07:41:21;7.11;;;7.11;;
71290;SDS011;59073;51.994;4.448;2024-03-17T07:43:49;7.32;;;7.32;;
71290;SDS011;59073;51.994;4.448;2024-03-17T07:46:15;7.29;;;7.29;;
71290;SDS011;59073;51.994;4.448;2024-03-17T07:48:41;7.42;;;7.36;;
71290;SDS011;59073;51.994;4.448;2024-03-17T07:51:12;7.56;;;7.48;;
71290;SDS011;59073;51.994;4.448;2024-03-17T07:53:40;6.81;;;6.81;;
71290;SDS011;59073;51.994;4.448;2024-03-17T07:56:07;7.24;;;7.23;;
71290;SDS011;59073;51.994;4.448;2024-03-17T07:58:34;7.11;;;7.10;;
71290;SDS011;59073;51.994;4.448;2024-03-17T08:01:03;6.59;;;6.59;;
71290;SDS011;59073;51.994;4.448;2024-03-17T08:03:35;7.24;;;7.24;;
71290;SDS011;59073;51.994;4.448;2024-03-17T08:06:02;7.04;;;7.04;;
71290;SDS011;59073;51.994;4.448;2024-03-17T08:08:29;6.81;;;6.81;;
71290;SDS011;59073;51.994;4.448;2024-03-17T08:10:55;7.06;;;7.06;;
71290;SDS011;59073;51.994;4.448;2024-03-17T08:13:21;7.24;;;7.24;;
71290;SDS011;59073;51.994;4.448;2024-03-17T08:15:55;6.93;;;6.93;;
71290;SDS011;59073;51.994;4.448;2024-03-17T08:18:25;6.86;;;6.86;;
71290;SDS011;59073;51.994;4.448;2024-03-17T08:20:52;6.83;;;6.83;;
71290;SDS011;59073;51.994;4.448;2024-03-17T08:23:22;7.16;;;7.16;;
71290;SDS011;59073;51.994;4.448;2024-03-17T08:25:51;7.26;;;7.26;;
71290;SDS011;59073;51.994;4.448;2024-03-17T08:28:18;6.99;;;6.99;;
71290;SDS011;59073;51.994;4.448;2024-03-17T08:30:50;6.94;;;6.94;;
71290;SDS011;59073;51.994;4.448;2024-03-17T08:33:19;7.14;;;7.14;;
71290;SDS011;59073;51.994;4.448;2024-03-17T08:35:57;7.18;;;7.18;;
71290;SDS011;59073;51.994;4.448;2024-03-17T08:38:24;7.23;;;7.23;;
71290;SDS011;59073;51.994;4.448;2024-03-17T08:40:54;7.27;;;7.27;;
71290;SDS011;59073;51.994;4.448;2024-03-17T08:43:21;7.19;;;7.19;;
71290;SDS011;59073;51.994;4.448;2024-03-17T08:45:54;7.21;;;7.13;;
71290;SDS011;59073;51.994;4.448;2024-03-17T08:48:25;7.37;;;7.31;;
71290;SDS011;59073;51.994;4.448;2024-03-17T08:50:52;7.11;;;7.09;;
71290;SDS011;59073;51.994;4.448;2024-03-17T08:53:19;7.02;;;7.02;;
71290;SDS011;59073;51.994;4.448;2024-03-17T08:55:45;7.33;;;7.33;;
71290;SDS011;59073;51.994;4.448;2024-03-17T08:58:11;6.84;;;6.84;;
71290;SDS011;59073;51.994;4.448;2024-03-17T09:00:36;7.01;;;7.01;;
71290;SDS011;59073;51.994;4.448;2024-03-17T09:03:02;6.54;;;6.49;;
71290;SDS011;59073;51.994;4.448;2024-03-17T09:05:28;7.06;;;7.06;;
71290;SDS011;59073;51.994;4.448;2024-03-17T09:07:54;6.95;;;6.95;;
71290;SDS011;59073;51.994;4.448;2024-03-17T09:10:20;6.85;;;6.84;;
71290;SDS011;59073;51.994;4.448;2024-03-17T09:12:46;6.75;;;6.75;;
71290;SDS011;59073;51.994;4.448;2024-03-17T09:15:12;6.43;;;6.43;;
71290;SDS011;59073;51.994;4.448;2024-03-17T09:17:38;6.67;;;6.67;;
71290;SDS011;59073;51.994;4.448;2024-03-17T09:20:05;6.30;;;6.30;;
71290;SDS011;59073;51.994;4.448;2024-03-17T09:22:36;6.25;;;6.25;;
71290;SDS011;59073;51.994;4.448;2024-03-17T09:25:04;6.17;;;6.17;;
71290;SDS011;59073;51.994;4.448;2024-03-17T09:27:32;6.40;;;6.40;;
71290;SDS011;59073;51.994;4.448;2024-03-17T09:29:59;6.32;;;6.32;;
71290;SDS011;59073;51.994;4.448;2024-03-17T09:32:25;6.05;;;6.05;;
71290;SDS011;59073;51.994;4.448;2024-03-17T09:34:51;6.16;;;6.16;;
71290;SDS011;59073;51.994;4.448;2024-03-17T09:37:16;6.53;;;6.53;;
71290;SDS011;59073;51.994;4.448;2024-03-17T09:39:42;6.39;;;6.39;;
71290;SDS011;59073;51.994;4.448;2024-03-17T09:42:15;6.09;;;6.09;;
71290;SDS011;59073;51.994;4.448;2024-03-17T09:44:46;5.87;;;5.87;;
71290;SDS011;59073;51.994;4.448;2024-03-17T09:47:16;5.86;;;5.86;;
71290;SDS011;59073;51.994;4.448;2024-03-17T09:49:46;6.01;;;6.01;;
71290;SDS011;59073;51.994;4.448;2024-03-17T09:52:15;6.00;;;6.00;;
71290;SDS011;59073;51.994;4.448;2024-03-17T09:54:46;5.94;;;5.94;;
71290;SDS011;59073;51.994;4.448;2024-03-17T09:57:16;5.84;;;5.84;;
71290;SDS011;59073;51.994;4.448;2024-03-17T09:59:42;5.96;;;5.96;;
71290;SDS011;59073;51.994;4.448;2024-03-17T10:02:16;5.89;;;5.89;;
71290;SDS011;59073;51.994;4.448;2024-03-17T10:04:46;5.65;;;5.65;;
71290;SDS011;59073;51.994;4.448;2024-03-17T10:07:12;5.58;;;5.58;;
71290;SDS011;59073;51.994;4.448;2024-03-17T10:09:37;5.61;;;5.61;;
71290;SDS011;59073;51.994;4.448;2024-03-17T10:12:04;5.39;;;5.39;;
71290;SDS011;59073;51.994;4.448;2024-03-17T10:14:30;5.48;;;5.48;;
71290;SDS011;59073;51.994;4.448;2024-03-17T10:16:56;5.25;;;5.25;;
71290;SDS011;59073;51.994;4.448;2024-03-17T10:19:25;5.35;;;5.35;;
71290;SDS011;59073;51.994;4.448;2024-03-17T10:21:59;5.14;;;5.14;;
71290;SDS011;59073;51.994;4.448;2024-03-17T10:24:26;5.48;;;5.48;;
71290;SDS011;59073;51.994;4.448;2024-03-17T10:26:57;5.15;;;5.15;;
71290;SDS011;59073;51.994;4.448;2024-03-17T10:29:25;5.53;;;5.53;;
71290;SDS011;59073;51.994;4.448;2024-03-17T10:31:54;5.13;;;5.13;;
71290;SDS011;59073;51.994;4.448;2024-03-17T10:34:22;4.79;;;4.79;;
71290;SDS011;59073;51.994;4.448;2024-03-17T10:37:05;4.61;;;4.61;;
71290;SDS011;59073;51.994;4.448;2024-03-17T10:39:33;4.87;;;4.86;;
71290;SDS011;59073;51.994;4.448;2024-03-17T10:42:00;4.83;;;4.79;;
71290;SDS011;59073;51.994;4.448;2024-03-17T10:44:27;4.76;;;4.72;;
71290;SDS011;59073;51.994;4.448;2024-03-17T10:46:54;5.03;;;5.02;;
71290;SDS011;59073;51.994;4.448;2024-03-17T10:49:28;4.65;;;4.65;;
71290;SDS011;59073;51.994;4.448;2024-03-17T10:52:03;4.83;;;4.83;;
71290;SDS011;59073;51.994;4.448;2024-03-17T10:54:33;4.53;;;4.53;;
71290;SDS011;59073;51.994;4.448;2024-03-17T10:57:07;4.55;;;4.55;;
71290;SDS011;59073;51.994;4.448;2024-03-17T10:59:52;4.77;;;4.77;;
71290;SDS011;59073;51.994;4.448;2024-03-17T11:04:53;4.46;;;4.46;;
71290;SDS011;59073;51.994;4.448;2024-03-17T11:07:21;4.67;;;4.67;;
71290;SDS011;59073;51.994;4.448;2024-03-17T11:09:48;4.50;;;4.50;;
71290;SDS011;59073;51.994;4.448;2024-03-17T11:17:50;4.47;;;4.47;;
71290;SDS011;59073;51.994;4.448;2024-03-17T11:20:24;4.71;;;4.71;;
71290;SDS011;59073;51.994;4.448;2024-03-17T11:22:53;4.92;;;4.92;;
71290;SDS011;59073;51.994;4.448;2024-03-17T11:27:52;5.14;;;5.12;;
71290;SDS011;59073;51.994;4.448;2024-03-17T11:39:05;4.61;;;4.61;;
71290;SDS011;59073;51.994;4.448;2024-03-17T11:41:48;5.12;;;5.12;;
71290;SDS011;59073;51.994;4.448;2024-03-17T11:46:44;4.45;;;4.45;;
71290;SDS011;59073;51.994;4.448;2024-03-17T11:49:22;4.71;;;4.71;;
71290;SDS011;59073;51.994;4.448;2024-03-17T11:51:49;4.76;;;4.75;;
71290;SDS011;59073;51.994;4.448;2024-03-17T11:54:16;4.89;;;4.85;;
71290;SDS011;59073;51.994;4.448;2024-03-17T11:56:48;4.84;;;4.84;;
71290;SDS011;59073;51.994;4.448;2024-03-17T11:59:15;5.24;;;5.23;;
71290;SDS011;59073;51.994;4.448;2024-03-17T12:01:50;5.06;;;5.06;;
71290;SDS011;59073;51.994;4.448;2024-03-17T12:04:16;4.74;;;4.74;;
71290;SDS011;59073;51.994;4.448;2024-03-17T12:06:45;5.09;;;5.08;;
71290;SDS011;59073;51.994;4.448;2024-03-17T12:09:18;4.83;;;4.83;;
71290;SDS011;59073;51.994;4.448;2024-03-17T12:12:04;4.67;;;4.67;;
71290;SDS011;59073;51.994;4.448;2024-03-17T12:14:33;4.83;;;4.83;;
71290;SDS011;59073;51.994;4.448;2024-03-17T12:19:28;4.52;;;4.52;;
71290;SDS011;59073;51.994;4.448;2024-03-17T12:21:57;4.72;;;4.72;;
71290;SDS011;59073;51.994;4.448;2024-03-17T12:24:27;4.44;;;4.44;;
71290;SDS011;59073;51.994;4.448;2024-03-17T12:26:55;4.32;;;4.32;;
71290;SDS011;59073;51.994;4.448;2024-03-17T12:31:58;4.24;;;4.23;;
71290;SDS011;59073;51.994;4.448;2024-03-17T12:34:27;4.41;;;4.41;;
71290;SDS011;59073;51.994;4.448;2024-03-17T12:36:55;4.14;;;4.14;;
71290;SDS011;59073;51.994;4.448;2024-03-17T12:39:27;4.34;;;4.34;;
71290;SDS011;59073;51.994;4.448;2024-03-17T12:44:28;4.31;;;4.31;;
71290;SDS011;59073;51.994;4.448;2024-03-17T12:46:58;4.47;;;4.47;;
71290;SDS011;59073;51.994;4.448;2024-03-17T12:49:26;4.50;;;4.50;;
71290;SDS011;59073;51.994;4.448;2024-03-17T12:51:52;4.19;;;4.19;;
71290;SDS011;59073;51.994;4.448;2024-03-17T12:54:24;3.67;;;3.67;;
71290;SDS011;59073;51.994;4.448;2024-03-17T12:56:51;4.38;;;4.36;;
71290;SDS011;59073;51.994;4.448;2024-03-17T12:59:51;3.94;;;3.93;;
71290;SDS011;59073;51.994;4.448;2024-03-17T13:02:40;4.09;;;4.09;;
71290;SDS011;59073;51.994;4.448;2024-03-17T13:05:07;4.31;;;4.31;;
71290;SDS011;59073;51.994;4.448;2024-03-17T13:07:36;4.41;;;4.40;;
71290;SDS011;59073;51.994;4.448;2024-03-17T13:10:01;3.75;;;3.73;;
71290;SDS011;59073;51.994;4.448;2024-03-17T13:12:28;3.77;;;3.77;;
71290;SDS011;59073;51.994;4.448;2024-03-17T13:14:53;3.77;;;3.77;;
71290;SDS011;59073;51.994;4.448;2024-03-17T13:17:19;4.17;;;4.17;;
71290;SDS011;59073;51.994;4.448;2024-03-17T13:19:45;4.25;;;4.25;;
71290;SDS011;59073;51.994;4.448;2024-03-17T13:22:11;4.23;;;4.23;;
71290;SDS011;59073;51.994;4.448;2024-03-17T13:24:37;3.94;;;3.92;;
71290;SDS011;59073;51.994;4.448;2024-03-17T13:27:03;4.01;;;4.00;;
71290;SDS011;59073;51.994;4.448;2024-03-17T13:29:31;3.78;;;3.78;;
71290;SDS011;59073;51.994;4.448;2024-03-17T13:32:02;4.37;;;4.37;;
71290;SDS011;59073;51.994;4.448;2024-03-17T13:34:28;4.11;;;4.10;;
71290;SDS011;59073;51.994;4.448;2024-03-17T13:36:53;3.82;;;3.82;;
71290;SDS011;59073;51.994;4.448;2024-03-17T13:39:19;4.48;;;4.48;;
71290;SDS011;59073;51.994;4.448;2024-03-17T13:41:47;3.65;;;3.65;;
71290;SDS011;59073;51.994;4.448;2024-03-17T13:44:14;3.80;;;3.80;;
71290;SDS011;59073;51.994;4.448;2024-03-17T13:46:43;3.95;;;3.94;;
71290;SDS011;59073;51.994;4.448;2024-03-17T13:49:09;3.67;;;3.67;;
71290;SDS011;59073;51.994;4.448;2024-03-17T13:51:35;3.81;;;3.80;;
71290;SDS011;59073;51.994;4.448;2024-03-17T13:54:00;3.91;;;3.89;;
71290;SDS011;59073;51.994;4.448;2024-03-17T13:56:27;3.66;;;3.66;;
71290;SDS011;59073;51.994;4.448;2024-03-17T13:58:52;4.10;;;4.10;;
71290;SDS011;59073;51.994;4.448;2024-03-17T14:01:18;3.52;;;3.52;;
71290;SDS011;59073;51.994;4.448;2024-03-17T14:03:43;3.32;;;3.31;;
71290;SDS011;59073;51.994;4.448;2024-03-17T14:06:10;4.06;;;4.03;;
71290;SDS011;59073;51.994;4.448;2024-03-17T14:08:36;3.99;;;3.94;;
71290;SDS011;59073;51.994;4.448;2024-03-17T14:11:02;4.17;;;4.14;;
71290;SDS011;59073;51.994;4.448;2024-03-17T14:13:29;4.11;;;4.11;;
71290;SDS011;59073;51.994;4.448;2024-03-17T14:15:58;3.65;;;3.65;;
71290;SDS011;59073;51.994;4.448;2024-03-17T14:18:24;4.21;;;4.21;;
71290;SDS011;59073;51.994;4.448;2024-03-17T14:20:49;3.76;;;3.76;;
71290;SDS011;59073;51.994;4.448;2024-03-17T14:23:17;3.78;;;3.78;;
71290;SDS011;59073;51.994;4.448;2024-03-17T14:25:43;3.99;;;3.99;;
71290;SDS011;59073;51.994;4.448;2024-03-17T14:28:08;3.58;;;3.57;;
71290;SDS011;59073;51.994;4.448;2024-03-17T14:30:34;3.50;;;3.48;;
71290;SDS011;59073;51.994;4.448;2024-03-17T14:33:00;3.50;;;3.49;;
71290;SDS011;59073;51.994;4.448;2024-03-17T14:35:25;3.60;;;3.60;;
71290;SDS011;59073;51.994;4.448;2024-03-17T14:37:52;3.83;;;3.82;;
71290;SDS011;59073;51.994;4.448;2024-03-17T14:40:18;3.77;;;3.77;;
71290;SDS011;59073;51.994;4.448;2024-03-17T14:42:53;3.55;;;3.55;;
71290;SDS011;59073;51.994;4.448;2024-03-17T14:45:20;3.57;;;3.54;;
71290;SDS011;59073;51.994;4.448;2024-03-17T14:47:50;3.41;;;3.40;;
71290;SDS011;59073;51.994;4.448;2024-03-17T14:50:17;3.35;;;3.35;;
71290;SDS011;59073;51.994;4.448;2024-03-17T14:52:45;3.58;;;3.56;;
71290;SDS011;59073;51.994;4.448;2024-03-17T14:55:11;3.72;;;3.70;;
71290;SDS011;59073;51.994;4.448;2024-03-17T14:57:38;3.56;;;3.56;;
71290;SDS011;59073;51.994;4.448;2024-03-17T15:00:08;3.70;;;3.70;;
71290;SDS011;59073;51.994;4.448;2024-03-17T15:02:41;3.72;;;3.72;;
71290;SDS011;59073;51.994;4.448;2024-03-17T15:05:08;3.66;;;3.66;;
71290;SDS011;59073;51.994;4.448;2024-03-17T15:07:34;3.31;;;3.31;;
71290;SDS011;59073;51.994;4.448;2024-03-17T15:10:00;3.65;;;3.65;;
71290;SDS011;59073;51.994;4.448;2024-03-17T15:12:25;3.41;;;3.41;;
71290;SDS011;59073;51.994;4.448;2024-03-17T15:14:51;3.49;;;3.49;;
71290;SDS011;59073;51.994;4.448;2024-03-17T15:17:17;3.37;;;3.37;;
71290;SDS011;59073;51.994;4.448;2024-03-17T15:19:46;3.42;;;3.42;;